Time;durP1;ratioP1;P1;durP2;ratioP2;P2;SDS_P1;SDS_P2;PMS_P1;PMS_P2;Temp;Humidity;BMP_temperature;BMP_pressure;BME280_temperature;BME280_humidity;BME280_pressure;Samples;Min_cycle;Max_cycle;Signal;HPM_P1;HPM_P2
2024/01/28 00:00:16;;;;;;;11.03;3.37;;;;;;;;;;4981937;28;20227;-73
2024/01/28 00:02:41;;;;;;;7.23;2.90;;;;;;;;;;4980065;28;20798;-71
2024/01/28 00:05:07;;;;;;;8.73;2.90;;;;;;;;;;4979700;28;20235;-72
2024/01/28 00:07:32;;;;;;;7.40;2.73;;;;;;;;;;4980108;28;20235;-72
2024/01/28 00:09:57;;;;;;;5.53;2.60;;;;;;;;;;4981981;28;20255;-70
2024/01/28 00:12:23;;;;;;;7.13;2.90;;;;;;;;;;4977654;28;20231;-72
2024/01/28 00:14:48;;;;;;;8.23;3.10;;;;;;;;;;4981809;28;20231;-72
2024/01/28 00:17:13;;;;;;;8.60;2.70;;;;;;;;;;4992538;28;20781;-72
2024/01/28 00:19:39;;;;;;;6.80;2.80;;;;;;;;;;4977647;28;20239;-72
2024/01/28 00:22:04;;;;;;;8.80;2.77;;;;;;;;;;4976870;28;20235;-73
2024/01/28 00:24:29;;;;;;;7.40;2.83;;;;;;;;;;4974737;28;20238;-72
2024/01/28 00:26:55;;;;;;;8.27;2.90;;;;;;;;;;4976531;28;20239;-71
2024/01/28 00:29:28;;;;;;;7.37;2.93;;;;;;;;;;4984846;28;20227;-72
2024/01/28 00:31:53;;;;;;;8.63;3.30;;;;;;;;;;4969697;28;20314;-72
2024/01/28 00:34:19;;;;;;;7.20;2.97;;;;;;;;;;4972747;28;20740;-72
2024/01/28 00:36:44;;;;;;;11.77;3.03;;;;;;;;;;4981657;28;20229;-71
2024/01/28 00:39:13;;;;;;;8.40;3.10;;;;;;;;;;4977591;28;20604;-72
2024/01/28 00:41:38;;;;;;;7.33;3.07;;;;;;;;;;4977484;28;20227;-71
2024/01/28 00:44:04;;;;;;;7.57;3.20;;;;;;;;;;4986293;28;20223;-73
2024/01/28 00:46:29;;;;;;;6.70;3.03;;;;;;;;;;4969556;28;20227;-72
2024/01/28 00:48:54;;;;;;;11.20;3.53;;;;;;;;;;4978818;28;20227;-71
2024/01/28 00:51:19;;;;;;;7.27;3.23;;;;;;;;;;4980394;28;20207;-71
2024/01/28 00:53:45;;;;;;;7.87;3.07;;;;;;;;;;4996739;28;20226;-70
2024/01/28 00:56:10;;;;;;;8.50;3.43;;;;;;;;;;4979831;28;20318;-72
2024/01/28 00:58:36;;;;;;;6.37;2.83;;;;;;;;;;4977085;28;20224;-70
2024/01/28 01:01:01;;;;;;;6.43;2.80;;;;;;;;;;4976769;28;20313;-72
2024/01/28 01:03:26;;;;;;;8.80;3.33;;;;;;;;;;4975688;28;20231;-72
2024/01/28 01:05:52;;;;;;;8.30;2.90;;;;;;;;;;4967433;28;20236;-72
2024/01/28 01:08:18;;;;;;;6.50;3.03;;;;;;;;;;4978210;28;20669;-72
2024/01/28 01:10:43;;;;;;;9.83;3.00;;;;;;;;;;4968800;28;20230;-70
2024/01/28 01:13:08;;;;;;;7.93;2.93;;;;;;;;;;4987958;28;20234;-72
2024/01/28 01:15:34;;;;;;;8.77;2.90;;;;;;;;;;4980974;28;20291;-72
2024/01/28 01:17:59;;;;;;;8.50;3.00;;;;;;;;;;4967219;28;20239;-72
2024/01/28 01:20:24;;;;;;;7.10;2.90;;;;;;;;;;4981286;28;20232;-71
2024/01/28 01:22:50;;;;;;;7.50;3.23;;;;;;;;;;4980695;28;20231;-71
2024/01/28 01:25:15;;;;;;;7.50;3.30;;;;;;;;;;4982317;28;20220;-71
2024/01/28 01:27:41;;;;;;;6.67;2.90;;;;;;;;;;4967480;28;20266;-70
2024/01/28 01:30:07;;;;;;;7.97;3.10;;;;;;;;;;4976268;28;20952;-72
2024/01/28 01:32:32;;;;;;;7.90;3.20;;;;;;;;;;4978347;28;20834;-70
2024/01/28 01:34:58;;;;;;;9.83;3.13;;;;;;;;;;4977854;28;20234;-71
2024/01/28 01:37:23;;;;;;;8.30;3.20;;;;;;;;;;4976743;28;20227;-71
2024/01/28 01:39:48;;;;;;;8.73;3.20;;;;;;;;;;4978638;28;20219;-71
2024/01/28 01:42:14;;;;;;;8.23;3.30;;;;;;;;;;4981891;28;20223;-72
2024/01/28 01:44:39;;;;;;;10.70;3.30;;;;;;;;;;4980463;28;20713;-71
2024/01/28 01:47:08;;;;;;;12.20;3.23;;;;;;;;;;4995098;28;20894;-71
2024/01/28 01:49:33;;;;;;;7.40;3.17;;;;;;;;;;4981592;28;20255;-73
2024/01/28 01:51:58;;;;;;;7.03;3.13;;;;;;;;;;4984991;28;20687;-70
2024/01/28 01:54:24;;;;;;;8.27;3.40;;;;;;;;;;4979293;28;20791;-71
2024/01/28 01:56:49;;;;;;;11.77;3.23;;;;;;;;;;4981176;28;20227;-71
2024/01/28 01:59:15;;;;;;;8.80;3.20;;;;;;;;;;4982947;28;20230;-70
2024/01/28 02:01:40;;;;;;;8.13;3.20;;;;;;;;;;4982905;28;20231;-71
2024/01/28 02:04:06;;;;;;;8.03;3.17;;;;;;;;;;4988357;28;20227;-72
2024/01/28 02:06:31;;;;;;;8.37;3.43;;;;;;;;;;4981494;28;20255;-71
2024/01/28 02:08:56;;;;;;;9.43;3.40;;;;;;;;;;4980745;28;20231;-71
2024/01/28 02:11:22;;;;;;;10.23;3.33;;;;;;;;;;4986644;28;20314;-71
2024/01/28 02:13:48;;;;;;;8.50;3.57;;;;;;;;;;4971374;28;20357;-72
2024/01/28 02:16:13;;;;;;;7.23;3.40;;;;;;;;;;4976160;28;20231;-71
2024/01/28 02:18:38;;;;;;;10.13;3.40;;;;;;;;;;4983966;28;20313;-71
2024/01/28 02:21:04;;;;;;;8.43;3.40;;;;;;;;;;4985010;28;20329;-71
2024/01/28 02:23:29;;;;;;;10.00;3.80;;;;;;;;;;4982051;28;20236;-70
2024/01/28 02:25:54;;;;;;;8.83;3.40;;;;;;;;;;4984257;28;20243;-71
2024/01/28 02:28:21;;;;;;;7.60;3.37;;;;;;;;;;4981363;28;20757;-71
2024/01/28 02:30:46;;;;;;;7.37;3.20;;;;;;;;;;4965576;28;20263;-72
2024/01/28 02:33:12;;;;;;;10.97;3.83;;;;;;;;;;4977960;28;20762;-72
2024/01/28 02:35:37;;;;;;;7.27;3.40;;;;;;;;;;4979393;28;20219;-71
2024/01/28 02:38:02;;;;;;;8.53;3.27;;;;;;;;;;4973325;28;20232;-71
2024/01/28 02:40:28;;;;;;;8.70;3.80;;;;;;;;;;4982965;28;20224;-71
2024/01/28 02:42:53;;;;;;;10.53;3.77;;;;;;;;;;4981241;28;20594;-71
2024/01/28 02:45:19;;;;;;;10.43;3.77;;;;;;;;;;4980210;28;20232;-72
2024/01/28 02:47:44;;;;;;;8.37;3.43;;;;;;;;;;4982869;28;20263;-71
2024/01/28 02:50:10;;;;;;;9.87;3.60;;;;;;;;;;4988140;28;20246;-72
2024/01/28 02:52:35;;;;;;;7.90;3.40;;;;;;;;;;4992665;28;20232;-72
2024/01/28 02:55:00;;;;;;;10.67;3.67;;;;;;;;;;4984412;28;20228;-73
2024/01/28 02:57:25;;;;;;;7.00;3.50;;;;;;;;;;4978236;28;20239;-72
2024/01/28 02:59:51;;;;;;;7.93;3.17;;;;;;;;;;4977901;28;20239;-72
2024/01/28 03:02:17;;;;;;;12.47;3.67;;;;;;;;;;4982015;28;20227;-72
2024/01/28 03:04:42;;;;;;;6.77;3.60;;;;;;;;;;4975387;28;20229;-72
2024/01/28 03:07:08;;;;;;;9.83;3.73;;;;;;;;;;4961708;28;20247;-72
2024/01/28 03:09:33;;;;;;;8.57;3.37;;;;;;;;;;4981023;28;20220;-71
2024/01/28 03:11:59;;;;;;;9.13;3.40;;;;;;;;;;4976109;28;20767;-71
2024/01/28 03:14:24;;;;;;;5.57;3.27;;;;;;;;;;4980810;28;20238;-72
2024/01/28 03:16:49;;;;;;;11.33;3.63;;;;;;;;;;4980822;28;20287;-70
2024/01/28 03:19:15;;;;;;;10.80;3.70;;;;;;;;;;4982669;28;20728;-72
2024/01/28 03:21:40;;;;;;;6.27;3.30;;;;;;;;;;4980987;28;20231;-72
2024/01/28 03:24:06;;;;;;;8.67;3.67;;;;;;;;;;4983096;28;20316;-72
2024/01/28 03:26:34;;;;;;;11.70;3.50;;;;;;;;;;4980657;28;20319;-72
2024/01/28 03:28:59;;;;;;;9.30;3.53;;;;;;;;;;4982460;28;20234;-72
2024/01/28 03:31:24;;;;;;;6.47;3.43;;;;;;;;;;4975340;28;20220;-73
2024/01/28 03:33:50;;;;;;;8.70;3.37;;;;;;;;;;4977748;28;20312;-72
2024/01/28 03:36:15;;;;;;;5.73;3.40;;;;;;;;;;4981096;28;20281;-73
2024/01/28 03:38:40;;;;;;;8.03;3.40;;;;;;;;;;4982422;28;20325;-72
2024/01/28 03:41:06;;;;;;;10.27;3.57;;;;;;;;;;4978589;28;20227;-74
2024/01/28 03:43:31;;;;;;;7.87;3.53;;;;;;;;;;4979315;28;20227;-73
2024/01/28 03:45:56;;;;;;;8.93;3.67;;;;;;;;;;4999448;28;20310;-73
2024/01/28 03:48:22;;;;;;;8.13;3.60;;;;;;;;;;4989490;28;20223;-73
2024/01/28 03:50:47;;;;;;;8.37;3.60;;;;;;;;;;4981228;28;20227;-74
2024/01/28 03:53:12;;;;;;;9.03;3.50;;;;;;;;;;4977954;28;20227;-72
2024/01/28 03:55:38;;;;;;;7.27;3.60;;;;;;;;;;4962977;28;20969;-71
2024/01/28 03:58:03;;;;;;;8.60;3.70;;;;;;;;;;4982390;28;20230;-72
2024/01/28 04:00:29;;;;;;;9.17;3.60;;;;;;;;;;4995211;28;20235;-72
2024/01/28 04:02:57;;;;;;;7.93;3.80;;;;;;;;;;4978791;28;20258;-72
2024/01/28 04:05:23;;;;;;;8.53;3.73;;;;;;;;;;4980477;28;20336;-71
2024/01/28 04:07:48;;;;;;;8.13;3.70;;;;;;;;;;4979654;28;20716;-72
2024/01/28 04:10:14;;;;;;;10.67;3.90;;;;;;;;;;4980968;28;20224;-72
2024/01/28 04:12:39;;;;;;;10.53;3.80;;;;;;;;;;4981885;28;20310;-72
2024/01/28 04:15:05;;;;;;;10.97;4.00;;;;;;;;;;4980996;28;20709;-71
2024/01/28 04:17:30;;;;;;;12.13;3.97;;;;;;;;;;4977832;28;20748;-71
2024/01/28 04:19:56;;;;;;;8.97;3.70;;;;;;;;;;4977246;28;20303;-72
2024/01/28 04:22:21;;;;;;;9.50;3.90;;;;;;;;;;4979496;28;20231;-71
2024/01/28 04:24:46;;;;;;;8.73;3.60;;;;;;;;;;4983080;28;20302;-71
2024/01/28 04:27:12;;;;;;;9.07;3.77;;;;;;;;;;4984560;28;20239;-71
2024/01/28 04:29:37;;;;;;;10.70;4.10;;;;;;;;;;4983002;28;20310;-72
2024/01/28 04:32:02;;;;;;;7.23;3.77;;;;;;;;;;4997780;28;20215;-72
2024/01/28 04:34:28;;;;;;;12.77;3.77;;;;;;;;;;4980084;28;20254;-72
2024/01/28 04:36:53;;;;;;;9.20;3.70;;;;;;;;;;4980175;28;20232;-72
2024/01/28 04:39:18;;;;;;;8.17;3.90;;;;;;;;;;4990889;28;20251;-71
2024/01/28 04:41:44;;;;;;;10.57;4.07;;;;;;;;;;4994050;28;20307;-70
2024/01/28 04:44:09;;;;;;;11.17;4.03;;;;;;;;;;4961135;28;20230;-72
2024/01/28 04:46:34;;;;;;;11.47;4.00;;;;;;;;;;4976380;28;20258;-72
2024/01/28 04:49:03;;;;;;;10.13;4.00;;;;;;;;;;4985139;28;20335;-71
2024/01/28 04:51:30;;;;;;;9.70;4.00;;;;;;;;;;4977923;28;20227;-71
2024/01/28 04:53:55;;;;;;;9.77;3.93;;;;;;;;;;4979084;28;20244;-73
2024/01/28 04:56:21;;;;;;;8.50;3.77;;;;;;;;;;4978923;28;20266;-71
2024/01/28 04:58:47;;;;;;;8.07;3.90;;;;;;;;;;4978572;28;20264;-72
2024/01/28 05:01:13;;;;;;;10.50;4.40;;;;;;;;;;4961480;28;20723;-71
2024/01/28 05:03:38;;;;;;;11.50;4.30;;;;;;;;;;4980093;28;20223;-72
2024/01/28 05:06:04;;;;;;;8.37;4.10;;;;;;;;;;4979436;28;20238;-71
2024/01/28 05:08:30;;;;;;;8.70;4.50;;;;;;;;;;4979849;28;20234;-71
2024/01/28 05:10:56;;;;;;;12.53;4.27;;;;;;;;;;4977407;28;20234;-73
2024/01/28 05:13:21;;;;;;;10.17;4.27;;;;;;;;;;4976536;28;20228;-73
2024/01/28 05:15:47;;;;;;;9.40;4.30;;;;;;;;;;4986424;28;20315;-73
2024/01/28 05:18:12;;;;;;;9.37;4.20;;;;;;;;;;4975932;28;20330;-73
2024/01/28 05:20:37;;;;;;;8.77;4.30;;;;;;;;;;4971952;28;20306;-74
2024/01/28 05:23:03;;;;;;;9.60;4.30;;;;;;;;;;4976076;28;20231;-74
2024/01/28 05:25:28;;;;;;;9.73;4.10;;;;;;;;;;4971883;28;20235;-74
2024/01/28 05:27:54;;;;;;;9.67;4.07;;;;;;;;;;4982360;28;20247;-74
2024/01/28 05:30:19;;;;;;;8.50;4.00;;;;;;;;;;4972723;28;20234;-74
2024/01/28 05:32:44;;;;;;;7.53;3.90;;;;;;;;;;4983299;28;20305;-75
2024/01/28 05:35:10;;;;;;;9.13;4.20;;;;;;;;;;4986744;28;20664;-74
2024/01/28 05:37:40;;;;;;;9.60;4.17;;;;;;;;;;4983717;28;20236;-74
2024/01/28 05:40:08;;;;;;;8.03;3.80;;;;;;;;;;4967111;28;20742;-75
2024/01/28 05:42:33;;;;;;;7.80;3.97;;;;;;;;;;4980098;28;20226;-73
2024/01/28 05:44:58;;;;;;;11.37;4.00;;;;;;;;;;4967244;28;20231;-74
2024/01/28 05:47:24;;;;;;;10.57;4.33;;;;;;;;;;4983858;28;20858;-74
2024/01/28 05:49:49;;;;;;;9.37;4.10;;;;;;;;;;4983763;28;20344;-74
2024/01/28 05:52:15;;;;;;;8.57;4.23;;;;;;;;;;4977750;28;20278;-74
2024/01/28 05:54:42;;;;;;;8.43;4.40;;;;;;;;;;4981936;28;20285;-74
2024/01/28 05:57:08;;;;;;;11.50;4.37;;;;;;;;;;4990424;28;20226;-74
2024/01/28 05:59:33;;;;;;;8.03;4.30;;;;;;;;;;4984069;28;20224;-74
2024/01/28 06:01:59;;;;;;;9.20;4.30;;;;;;;;;;4981594;28;20369;-74
2024/01/28 06:04:24;;;;;;;11.93;4.30;;;;;;;;;;4962712;28;20297;-74
2024/01/28 06:06:50;;;;;;;11.80;4.70;;;;;;;;;;4998241;28;20235;-71
2024/01/28 06:09:15;;;;;;;8.60;4.30;;;;;;;;;;4979124;28;20235;-71
2024/01/28 06:11:43;;;;;;;10.57;4.50;;;;;;;;;;4962961;28;20220;-71
2024/01/28 06:14:09;;;;;;;12.23;4.67;;;;;;;;;;4963625;28;20236;-71
2024/01/28 06:16:34;;;;;;;13.27;4.60;;;;;;;;;;4977493;28;20246;-71
2024/01/28 06:18:59;;;;;;;7.83;4.70;;;;;;;;;;4961771;28;20242;-72
2024/01/28 06:21:25;;;;;;;8.30;4.53;;;;;;;;;;4994830;28;20224;-70
2024/01/28 06:23:50;;;;;;;10.00;4.43;;;;;;;;;;4979223;28;20232;-70
2024/01/28 06:26:17;;;;;;;10.53;4.50;;;;;;;;;;4980909;28;20370;-71
2024/01/28 06:28:43;;;;;;;12.20;4.37;;;;;;;;;;4983145;28;20239;-70
2024/01/28 06:31:08;;;;;;;8.93;4.80;;;;;;;;;;4980957;28;20794;-71
2024/01/28 06:33:34;;;;;;;9.13;4.67;;;;;;;;;;4981458;28;20724;-73
2024/01/28 06:36:00;;;;;;;8.87;4.27;;;;;;;;;;4974930;28;20339;-70
2024/01/28 06:38:25;;;;;;;9.70;4.53;;;;;;;;;;4976022;28;20231;-72
2024/01/28 06:40:50;;;;;;;12.13;4.83;;;;;;;;;;4980416;28;20223;-71
2024/01/28 06:43:16;;;;;;;14.40;6.10;;;;;;;;;;4979628;28;20226;-71
2024/01/28 06:45:42;;;;;;;11.93;4.90;;;;;;;;;;4977740;28;20247;-71
2024/01/28 06:48:07;;;;;;;9.30;4.93;;;;;;;;;;4978058;28;20240;-73
2024/01/28 06:50:33;;;;;;;10.70;5.30;;;;;;;;;;4980843;28;20242;-72
2024/01/28 06:53:01;;;;;;;11.70;5.03;;;;;;;;;;4980588;28;20246;-72
2024/01/28 06:55:26;;;;;;;11.47;5.33;;;;;;;;;;4996181;28;20314;-72
2024/01/28 06:57:52;;;;;;;11.03;5.63;;;;;;;;;;4984074;28;20315;-72
2024/01/28 07:00:17;;;;;;;10.77;5.17;;;;;;;;;;4980188;28;20232;-73
2024/01/28 07:02:44;;;;;;;11.43;5.70;;;;;;;;;;4981016;28;20223;-71
2024/01/28 07:05:11;;;;;;;12.17;5.80;;;;;;;;;;4967946;28;20235;-71
2024/01/28 07:07:37;;;;;;;12.93;5.60;;;;;;;;;;4976671;28;20246;-72
2024/01/28 07:10:02;;;;;;;12.10;5.73;;;;;;;;;;4981897;28;20227;-71
2024/01/28 07:12:28;;;;;;;11.33;5.43;;;;;;;;;;4980532;28;20223;-71
2024/01/28 07:14:54;;;;;;;16.27;5.73;;;;;;;;;;4963303;28;20239;-71
2024/01/28 07:17:19;;;;;;;11.70;5.63;;;;;;;;;;4978424;28;20235;-71
2024/01/28 07:19:44;;;;;;;13.43;6.47;;;;;;;;;;4981597;28;20231;-71
2024/01/28 07:22:11;;;;;;;14.90;6.27;;;;;;;;;;4968157;28;20220;-73
2024/01/28 07:24:37;;;;;;;13.93;6.13;;;;;;;;;;4979993;28;20266;-71
2024/01/28 07:27:03;;;;;;;13.53;5.50;;;;;;;;;;4978494;28;20231;-72
2024/01/28 07:29:28;;;;;;;11.43;5.40;;;;;;;;;;4980296;28;20260;-72
2024/01/28 07:31:54;;;;;;;11.23;5.33;;;;;;;;;;4976074;28;20394;-72
2024/01/28 07:34:20;;;;;;;10.33;5.80;;;;;;;;;;4980552;28;20383;-71
2024/01/28 07:36:47;;;;;;;12.53;5.57;;;;;;;;;;4980916;28;20239;-73
2024/01/28 07:39:14;;;;;;;13.23;5.33;;;;;;;;;;4978287;28;20227;-72
2024/01/28 07:41:40;;;;;;;12.70;6.00;;;;;;;;;;4976969;28;20223;-72
2024/01/28 07:44:05;;;;;;;11.60;5.87;;;;;;;;;;4983258;28;20305;-74
2024/01/28 07:46:30;;;;;;;12.17;6.00;;;;;;;;;;4979094;28;20409;-73
2024/01/28 07:49:16;;;;;;;13.93;6.10;;;;;;;;;;4984976;28;20232;-73
2024/01/28 07:51:42;;;;;;;12.17;5.90;;;;;;;;;;4980370;28;20302;-72
2024/01/28 07:54:07;;;;;;;12.47;5.90;;;;;;;;;;4980053;28;20235;-72
2024/01/28 07:56:32;;;;;;;12.30;6.97;;;;;;;;;;4981732;28;20227;-73
2024/01/28 07:58:58;;;;;;;13.23;6.20;;;;;;;;;;4980916;28;20267;-71
2024/01/28 08:01:23;;;;;;;13.60;6.60;;;;;;;;;;4978087;28;20223;-72
2024/01/28 08:03:49;;;;;;;11.07;6.03;;;;;;;;;;4979000;28;20243;-73
2024/01/28 08:06:14;;;;;;;17.47;7.07;;;;;;;;;;4977621;28;20234;-71
2024/01/28 08:08:40;;;;;;;15.57;6.50;;;;;;;;;;4984388;28;20238;-72
2024/01/28 08:11:05;;;;;;;17.13;7.00;;;;;;;;;;4998774;28;20597;-73
2024/01/28 08:13:31;;;;;;;14.27;6.33;;;;;;;;;;4983713;28;20675;-72
2024/01/28 08:16:01;;;;;;;13.93;6.70;;;;;;;;;;4979573;28;20255;-73
2024/01/28 08:18:27;;;;;;;13.27;7.00;;;;;;;;;;4978121;28;20236;-73
2024/01/28 08:20:52;;;;;;;15.33;6.43;;;;;;;;;;4982656;28;20234;-71
2024/01/28 08:23:17;;;;;;;14.70;6.30;;;;;;;;;;4976396;28;20231;-71
2024/01/28 08:25:43;;;;;;;10.80;5.77;;;;;;;;;;4978007;28;20282;-72
2024/01/28 08:28:08;;;;;;;13.23;5.50;;;;;;;;;;4976373;28;20247;-72
2024/01/28 08:30:33;;;;;;;11.13;5.47;;;;;;;;;;4981595;28;20231;-71
2024/01/28 08:32:59;;;;;;;15.93;5.80;;;;;;;;;;4981286;28;20231;-71
2024/01/28 08:35:24;;;;;;;13.73;5.70;;;;;;;;;;4996219;28;20224;-71
2024/01/28 08:37:50;;;;;;;12.90;5.90;;;;;;;;;;4984771;28;20227;-73
2024/01/28 08:40:15;;;;;;;11.93;5.80;;;;;;;;;;4968689;28;20231;-72
2024/01/28 08:42:41;;;;;;;11.57;6.17;;;;;;;;;;4977686;28;20224;-73
2024/01/28 08:45:06;;;;;;;15.87;7.20;;;;;;;;;;4979466;28;20227;-71
2024/01/28 08:47:32;;;;;;;11.87;5.60;;;;;;;;;;4976725;28;20322;-72
2024/01/28 08:49:57;;;;;;;9.90;5.00;;;;;;;;;;4984332;28;20318;-71
2024/01/28 08:52:22;;;;;;;10.23;4.60;;;;;;;;;;4982400;28;20223;-72
2024/01/28 08:54:48;;;;;;;11.73;4.87;;;;;;;;;;4987864;28;20866;-69
2024/01/28 08:57:13;;;;;;;9.83;4.67;;;;;;;;;;4981927;28;20234;-72
2024/01/28 08:59:39;;;;;;;10.97;4.83;;;;;;;;;;4971400;28;20227;-72
2024/01/28 09:02:04;;;;;;;9.70;4.87;;;;;;;;;;4984937;28;20274;-72
2024/01/28 09:04:30;;;;;;;11.13;5.00;;;;;;;;;;4992552;28;20238;-72
2024/01/28 09:06:55;;;;;;;12.43;5.30;;;;;;;;;;4968005;28;20231;-71
2024/01/28 09:09:20;;;;;;;13.33;5.17;;;;;;;;;;4981200;28;20245;-72
2024/01/28 09:11:45;;;;;;;7.33;4.50;;;;;;;;;;4984923;28;20258;-71
2024/01/28 09:14:11;;;;;;;11.17;5.10;;;;;;;;;;4982660;28;20228;-72
2024/01/28 09:16:36;;;;;;;8.90;4.60;;;;;;;;;;4983864;28;20263;-71
2024/01/28 09:19:03;;;;;;;12.97;5.20;;;;;;;;;;4985122;28;20258;-72
2024/01/28 09:21:29;;;;;;;10.10;5.13;;;;;;;;;;4998783;28;20306;-71
2024/01/28 09:23:55;;;;;;;11.27;5.90;;;;;;;;;;4987944;28;20780;-71
2024/01/28 09:26:20;;;;;;;10.37;5.20;;;;;;;;;;4986275;28;20228;-72
2024/01/28 09:28:45;;;;;;;9.17;4.70;;;;;;;;;;4981950;28;20230;-71
2024/01/28 09:31:11;;;;;;;8.40;4.53;;;;;;;;;;4981431;28;20715;-71
2024/01/28 09:33:36;;;;;;;7.40;4.43;;;;;;;;;;4981612;28;20232;-71
2024/01/28 09:36:01;;;;;;;10.10;4.50;;;;;;;;;;4983782;28;20235;-71
2024/01/28 09:38:27;;;;;;;9.20;4.67;;;;;;;;;;4984626;28;20231;-71
2024/01/28 09:40:52;;;;;;;17.63;7.10;;;;;;;;;;4984726;28;20227;-72
2024/01/28 09:43:25;;;;;;;11.90;4.80;;;;;;;;;;4980023;28;20223;-71
2024/01/28 09:45:51;;;;;;;14.00;4.70;;;;;;;;;;4985208;28;20243;-71
2024/01/28 09:48:16;;;;;;;9.93;4.57;;;;;;;;;;4981890;28;20231;-72
2024/01/28 09:50:41;;;;;;;10.33;4.90;;;;;;;;;;4984579;28;20710;-71
2024/01/28 09:53:07;;;;;;;7.33;3.90;;;;;;;;;;4985923;28;20651;-72
2024/01/28 09:55:32;;;;;;;7.97;4.10;;;;;;;;;;4972020;28;20227;-72
2024/01/28 09:57:57;;;;;;;7.60;4.63;;;;;;;;;;4970427;28;20388;-72
2024/01/28 10:00:23;;;;;;;9.50;4.77;;;;;;;;;;4980619;28;20623;-71
2024/01/28 10:02:48;;;;;;;9.03;4.57;;;;;;;;;;4970414;28;20224;-72
2024/01/28 10:05:14;;;;;;;11.03;5.20;;;;;;;;;;4985789;28;20736;-72
2024/01/28 10:07:49;;;;;;;10.83;4.50;;;;;;;;;;4984805;28;20292;-72
2024/01/28 10:10:16;;;;;;;10.17;4.90;;;;;;;;;;4979276;28;20394;-72
2024/01/28 10:12:41;;;;;;;11.03;4.93;;;;;;;;;;4983461;28;20259;-72
2024/01/28 10:15:14;;;;;;;9.37;5.00;;;;;;;;;;4980260;28;20251;-72
2024/01/28 10:17:39;;;;;;;8.33;4.10;;;;;;;;;;4983492;28;20289;-73
2024/01/28 10:20:07;;;;;;;9.50;5.03;;;;;;;;;;4978344;28;20235;-72
2024/01/28 10:22:32;;;;;;;11.00;5.20;;;;;;;;;;4981075;28;20228;-72
2024/01/28 10:24:58;;;;;;;12.73;4.60;;;;;;;;;;4981194;28;20263;-72
2024/01/28 10:27:23;;;;;;;13.50;5.53;;;;;;;;;;4996854;28;20227;-72
2024/01/28 10:29:48;;;;;;;9.87;5.40;;;;;;;;;;4983760;28;20235;-71
2024/01/28 10:32:14;;;;;;;9.57;5.40;;;;;;;;;;4981487;28;20250;-72
2024/01/28 10:34:39;;;;;;;11.43;4.60;;;;;;;;;;4998557;28;20231;-72
2024/01/28 10:37:05;;;;;;;8.43;4.50;;;;;;;;;;4996807;28;20290;-72
2024/01/28 10:39:34;;;;;;;13.10;4.40;;;;;;;;;;4981211;28;20231;-72
2024/01/28 10:41:59;;;;;;;8.53;4.50;;;;;;;;;;4983740;28;20302;-71
2024/01/28 10:44:24;;;;;;;9.33;4.57;;;;;;;;;;4982185;28;20231;-72
2024/01/28 10:46:52;;;;;;;10.30;4.10;;;;;;;;;;4980522;28;20301;-72
2024/01/28 10:49:17;;;;;;;9.10;4.37;;;;;;;;;;4980771;28;20306;-71
2024/01/28 10:51:43;;;;;;;11.23;4.80;;;;;;;;;;4968059;28;20322;-72
2024/01/28 10:54:08;;;;;;;10.00;4.90;;;;;;;;;;4977595;28;20319;-72
2024/01/28 10:56:34;;;;;;;9.77;4.70;;;;;;;;;;4978563;28;20676;-71
2024/01/28 10:58:59;;;;;;;11.20;4.90;;;;;;;;;;4972082;28;20239;-71
2024/01/28 11:01:28;;;;;;;9.63;5.00;;;;;;;;;;4979589;28;20277;-72
2024/01/28 11:03:53;;;;;;;7.47;4.43;;;;;;;;;;4981678;28;20677;-72
2024/01/28 11:06:19;;;;;;;11.20;4.93;;;;;;;;;;4978942;28;20235;-72
2024/01/28 11:08:48;;;;;;;9.50;4.73;;;;;;;;;;4984482;28;20254;-72
2024/01/28 11:11:13;;;;;;;10.60;4.63;;;;;;;;;;4967369;28;20234;-71
2024/01/28 11:13:39;;;;;;;9.23;4.90;;;;;;;;;;4960778;28;20314;-71
2024/01/28 11:16:08;;;;;;;9.60;5.30;;;;;;;;;;4978343;28;20287;-71
2024/01/28 11:18:33;;;;;;;12.90;6.10;;;;;;;;;;4977768;28;20736;-72
2024/01/28 11:21:14;;;;;;;11.37;5.20;;;;;;;;;;4964979;28;20239;-72
2024/01/28 11:23:44;;;;;;;11.53;5.00;;;;;;;;;;4978030;28;20374;-71
2024/01/28 11:26:18;;;;;;;12.10;5.30;;;;;;;;;;4976951;28;20313;-72
2024/01/28 11:28:47;;;;;;;9.90;4.90;;;;;;;;;;4981634;28;20231;-71
2024/01/28 11:31:19;;;;;;;12.17;5.03;;;;;;;;;;4980280;28;20223;-72
2024/01/28 11:33:45;;;;;;;13.10;6.37;;;;;;;;;;4978945;28;20286;-73
2024/01/28 11:36:10;;;;;;;11.37;5.57;;;;;;;;;;4975830;28;20311;-71
2024/01/28 11:38:36;;;;;;;13.57;6.80;;;;;;;;;;4976669;28;20330;-71
2024/01/28 11:41:02;;;;;;;12.37;6.70;;;;;;;;;;4981322;28;20230;-72
2024/01/28 11:43:27;;;;;;;14.23;5.90;;;;;;;;;;4984080;28;20235;-72
2024/01/28 11:45:53;;;;;;;11.87;6.10;;;;;;;;;;4987629;28;20251;-75
2024/01/28 11:48:18;;;;;;;12.93;6.50;;;;;;;;;;4962202;28;20925;-74
2024/01/28 11:50:44;;;;;;;13.67;6.60;;;;;;;;;;4961486;28;20753;-75
2024/01/28 11:53:09;;;;;;;16.60;7.87;;;;;;;;;;4969942;28;20303;-75
2024/01/28 11:55:35;;;;;;;10.83;5.80;;;;;;;;;;4973954;28;20231;-71
2024/01/28 11:58:03;;;;;;;13.47;6.00;;;;;;;;;;4978624;28;20228;-72
2024/01/28 12:00:29;;;;;;;10.47;6.33;;;;;;;;;;4977421;28;20222;-70
2024/01/28 12:02:54;;;;;;;15.07;6.90;;;;;;;;;;4969557;28;20223;-71
2024/01/28 12:05:20;;;;;;;14.40;6.67;;;;;;;;;;4982205;28;20239;-72
2024/01/28 12:07:45;;;;;;;10.83;5.90;;;;;;;;;;4980713;28;20716;-70
2024/01/28 12:10:12;;;;;;;11.83;6.20;;;;;;;;;;4970302;28;20227;-72
2024/01/28 12:12:39;;;;;;;12.57;5.90;;;;;;;;;;4990681;28;20223;-72
2024/01/28 12:15:04;;;;;;;11.50;6.30;;;;;;;;;;4980372;28;20234;-72
2024/01/28 12:17:36;;;;;;;14.17;6.63;;;;;;;;;;4976373;28;20235;-71
2024/01/28 12:20:03;;;;;;;12.93;6.03;;;;;;;;;;4976922;28;20768;-73
2024/01/28 12:22:38;;;;;;;10.17;5.63;;;;;;;;;;4983657;28;20705;-71
2024/01/28 12:25:10;;;;;;;14.90;6.20;;;;;;;;;;4979543;28;20227;-72
2024/01/28 12:27:35;;;;;;;10.93;5.57;;;;;;;;;;4979768;28;20231;-73
2024/01/28 12:30:00;;;;;;;12.13;6.50;;;;;;;;;;4975309;28;20227;-71
2024/01/28 12:32:26;;;;;;;11.13;5.90;;;;;;;;;;4978671;28;20234;-72
2024/01/28 12:34:52;;;;;;;9.77;5.87;;;;;;;;;;4978480;28;20707;-71
2024/01/28 12:37:19;;;;;;;13.43;5.63;;;;;;;;;;4975423;28;20227;-72
2024/01/28 12:39:44;;;;;;;11.60;6.20;;;;;;;;;;4980649;28;20339;-71
2024/01/28 12:42:10;;;;;;;11.50;6.10;;;;;;;;;;4981873;28;20310;-72
2024/01/28 12:44:35;;;;;;;13.87;6.40;;;;;;;;;;4977826;28;20374;-72
2024/01/28 12:47:01;;;;;;;13.90;6.63;;;;;;;;;;4978941;28;20633;-72
2024/01/28 12:49:27;;;;;;;11.30;6.00;;;;;;;;;;4975985;28;20224;-71
2024/01/28 12:51:53;;;;;;;14.17;6.50;;;;;;;;;;4978730;28;20224;-72
2024/01/28 12:54:18;;;;;;;16.03;7.03;;;;;;;;;;4978387;28;20459;-73
2024/01/28 12:56:44;;;;;;;13.73;7.27;;;;;;;;;;4993141;28;20223;-71
2024/01/28 12:59:09;;;;;;;11.90;6.10;;;;;;;;;;4971211;28;20676;-73
2024/01/28 13:01:34;;;;;;;12.60;6.17;;;;;;;;;;4983588;28;20223;-71
2024/01/28 13:04:00;;;;;;;14.43;7.77;;;;;;;;;;4977378;28;20226;-72
2024/01/28 13:06:25;;;;;;;10.43;6.17;;;;;;;;;;4978783;28;20238;-72
2024/01/28 13:08:50;;;;;;;13.80;6.80;;;;;;;;;;4968496;28;20751;-71
2024/01/28 13:11:16;;;;;;;12.33;6.00;;;;;;;;;;4978720;28;20219;-72
2024/01/28 13:13:43;;;;;;;15.93;6.80;;;;;;;;;;4970229;28;20712;-73
2024/01/28 13:16:08;;;;;;;13.63;6.53;;;;;;;;;;4977446;28;20258;-74
2024/01/28 13:18:34;;;;;;;15.13;6.93;;;;;;;;;;4977277;28;20282;-74
2024/01/28 13:20:59;;;;;;;12.20;6.57;;;;;;;;;;4993569;28;20231;-74
2024/01/28 13:23:25;;;;;;;13.47;6.90;;;;;;;;;;4979964;28;20251;-73
2024/01/28 13:25:50;;;;;;;14.47;7.17;;;;;;;;;;4979050;28;20614;-75
2024/01/28 13:28:15;;;;;;;12.63;7.10;;;;;;;;;;4980381;28;20243;-74
2024/01/28 13:30:41;;;;;;;14.73;7.20;;;;;;;;;;4984919;28;20231;-74
2024/01/28 13:33:06;;;;;;;13.27;7.03;;;;;;;;;;4979732;28;20309;-74
2024/01/28 13:35:33;;;;;;;15.67;7.33;;;;;;;;;;4984028;28;20228;-74
2024/01/28 13:37:58;;;;;;;14.47;7.07;;;;;;;;;;4980822;28;20247;-74
2024/01/28 13:40:23;;;;;;;13.47;7.13;;;;;;;;;;4979294;28;20266;-75
2024/01/28 13:42:48;;;;;;;13.80;7.50;;;;;;;;;;4998126;28;20232;-74
2024/01/28 13:45:14;;;;;;;13.17;7.60;;;;;;;;;;4983796;28;20290;-75
2024/01/28 13:47:40;;;;;;;16.47;8.37;;;;;;;;;;4982120;28;20235;-74
2024/01/28 13:50:06;;;;;;;16.60;7.50;;;;;;;;;;4982710;28;20235;-74
2024/01/28 13:52:31;;;;;;;16.27;7.70;;;;;;;;;;4979303;28;20813;-75
2024/01/28 13:54:57;;;;;;;18.37;8.03;;;;;;;;;;4978358;28;20240;-74
2024/01/28 13:57:22;;;;;;;15.73;7.80;;;;;;;;;;4980952;28;20227;-75
2024/01/28 13:59:48;;;;;;;14.00;7.20;;;;;;;;;;4996191;28;20227;-75
2024/01/28 14:02:13;;;;;;;33.40;11.53;;;;;;;;;;4979400;28;20290;-74
2024/01/28 14:04:39;;;;;;;27.50;11.13;;;;;;;;;;4996831;28;20232;-73
2024/01/28 14:07:04;;;;;;;58.53;15.50;;;;;;;;;;4982296;28;20242;-74
2024/01/28 14:09:29;;;;;;;15.00;7.67;;;;;;;;;;4985445;28;20251;-74
2024/01/28 14:11:55;;;;;;;16.27;7.50;;;;;;;;;;4981802;28;20278;-73
2024/01/28 14:14:20;;;;;;;12.80;7.10;;;;;;;;;;4985047;28;20289;-75
2024/01/28 14:16:45;;;;;;;13.13;7.17;;;;;;;;;;4981706;28;20236;-76
2024/01/28 14:19:11;;;;;;;14.50;7.40;;;;;;;;;;4979961;28;20227;-74
2024/01/28 14:21:36;;;;;;;14.63;7.30;;;;;;;;;;4981470;28;20231;-74
2024/01/28 14:24:02;;;;;;;15.70;7.30;;;;;;;;;;4982475;28;20227;-73
2024/01/28 14:26:27;;;;;;;14.03;7.87;;;;;;;;;;4997174;28;20231;-71